Time;durP1;ratioP1;P1;durP2;ratioP2;P2;SDS_P1;SDS_P2;PMS_P1;PMS_P2;Temp;Humidity;BMP_temperature;BMP_pressure;BME280_temperature;BME280_humidity;BME280_pressure;Samples;Min_cycle;Max_cycle;Signal;HPM_P1;HPM_P2
2023/04/07 00:01:40;;;;;;;20.13;15.65;;;;;;;10.48;100.00;101356.38;5244111;28;20490;-69
2023/04/07 00:04:11;;;;;;;21.65;15.00;;;;;;;10.42;100.00;101363.91;5247302;28;20057;-70
2023/04/07 00:06:42;;;;;;;22.88;15.88;;;;;;;10.40;100.00;101365.78;5247224;28;20101;-70
2023/04/07 00:09:14;;;;;;;22.42;15.52;;;;;;;10.37;100.00;101366.84;5245088;28;20507;-69
2023/04/07 00:11:47;;;;;;;23.02;14.82;;;;;;;10.48;100.00;101364.25;5246129;28;20051;-69
2023/04/07 00:14:18;;;;;;;19.60;15.55;;;;;;;10.47;100.00;101361.75;5247680;28;20029;-70
2023/04/07 00:16:50;;;;;;;20.50;15.90;;;;;;;10.52;100.00;101361.41;5247202;28;20039;-69
2023/04/07 00:19:21;;;;;;;18.42;14.63;;;;;;;10.53;100.00;101363.06;5245480;28;20032;-70
2023/04/07 00:21:53;;;;;;;19.30;13.98;;;;;;;10.46;100.00;101360.94;5245641;28;20040;-70
2023/04/07 00:24:24;;;;;;;21.73;14.98;;;;;;;10.54;100.00;101367.38;5247338;28;20059;-70
2023/04/07 00:26:55;;;;;;;21.83;15.10;;;;;;;10.52;100.00;101371.88;5240957;28;20051;-69
2023/04/07 00:29:27;;;;;;;20.20;15.48;;;;;;;10.52;100.00;101370.09;5248340;28;20624;-70
2023/04/07 00:31:58;;;;;;;21.27;15.23;;;;;;;10.37;100.00;101371.25;5244985;28;20068;-69
2023/04/07 00:34:29;;;;;;;21.55;14.50;;;;;;;10.22;100.00;101371.41;5247911;28;20086;-69
2023/04/07 00:37:00;;;;;;;20.20;15.40;;;;;;;10.39;100.00;101369.38;5241998;28;20061;-70
2023/04/07 00:39:32;;;;;;;24.23;16.55;;;;;;;10.26;100.00;101369.44;5249730;28;20180;-69
2023/04/07 00:42:06;;;;;;;20.58;14.75;;;;;;;10.30;100.00;101372.66;5244122;28;20059;-70
2023/04/07 00:44:38;;;;;;;21.00;14.82;;;;;;;10.33;100.00;101359.34;5246074;28;20041;-69
2023/04/07 00:47:09;;;;;;;19.17;14.95;;;;;;;10.33;100.00;101364.59;5242841;28;20079;-70
2023/04/07 00:49:41;;;;;;;23.05;14.73;;;;;;;10.34;100.00;101367.09;5244414;28;20037;-69
2023/04/07 00:52:13;;;;;;;18.10;14.75;;;;;;;10.29;100.00;101363.16;5243104;28;20059;-70
2023/04/07 00:54:45;;;;;;;20.00;15.68;;;;;;;10.33;100.00;101362.78;5244480;28;20073;-70
2023/04/07 00:57:16;;;;;;;23.52;16.30;;;;;;;10.32;100.00;101361.13;5245102;28;20047;-70
2023/04/07 00:59:51;;;;;;;20.55;15.35;;;;;;;10.44;100.00;101369.84;5245322;28;20077;-69
2023/04/07 01:02:30;;;;;;;20.40;15.10;;;;;;;10.46;100.00;101365.34;5238681;28;20493;-69
2023/04/07 01:05:11;;;;;;;20.70;16.40;;;;;;;10.46;100.00;101370.56;5238822;28;20057;-69
2023/04/07 01:07:51;;;;;;;21.38;15.55;;;;;;;10.36;100.00;101372.22;5238089;28;20041;-69
2023/04/07 01:10:40;;;;;;;22.02;16.63;;;;;;;10.37;100.00;101366.84;5240483;28;20018;-69
2023/04/07 01:13:31;;;;;;;20.98;15.55;;;;;;;10.51;100.00;101371.06;5239518;28;20036;-69
2023/04/07 01:16:08;;;;;;;21.70;15.93;;;;;;;10.33;100.00;101375.88;5238179;28;20028;-69
2023/04/07 01:18:40;;;;;;;20.77;15.25;;;;;;;10.36;100.00;101374.84;5238398;28;20080;-69
2023/04/07 01:21:17;;;;;;;21.42;16.25;;;;;;;10.35;100.00;101368.75;5239936;28;20025;-69
2023/04/07 01:24:13;;;;;;;19.75;15.80;;;;;;;10.49;100.00;101375.56;5239031;28;20390;-69
2023/04/07 01:26:46;;;;;;;21.23;16.92;;;;;;;10.16;100.00;101377.13;5240116;28;20056;-69
2023/04/07 01:29:40;;;;;;;21.50;16.92;;;;;;;10.50;100.00;101377.25;5236880;28;20541;-70
2023/04/07 01:32:12;;;;;;;21.05;15.95;;;;;;;10.20;100.00;101372.50;5239975;28;20124;-69
2023/04/07 01:34:46;;;;;;;20.33;15.48;;;;;;;10.22;100.00;101379.28;5244033;28;20450;-69
2023/04/07 01:37:19;;;;;;;18.30;14.98;;;;;;;10.11;100.00;101378.41;5233078;28;20030;-69
2023/04/07 01:39:50;;;;;;;19.23;14.70;;;;;;;10.08;100.00;101383.91;5243449;28;20057;-69
2023/04/07 01:42:24;;;;;;;19.30;13.90;;;;;;;10.11;100.00;101381.03;5244373;28;20049;-69
2023/04/07 01:44:57;;;;;;;15.80;12.32;;;;;;;10.04;100.00;101377.19;5241110;28;20045;-69
2023/04/07 01:47:30;;;;;;;15.48;11.77;;;;;;;9.97;100.00;101385.50;5244986;28;20497;-69
2023/04/07 01:50:05;;;;;;;13.70;10.17;;;;;;;10.04;100.00;101382.41;5244922;28;20102;-69
2023/04/07 01:52:39;;;;;;;14.82;10.00;;;;;;;10.05;100.00;101398.03;5244074;28;20777;-69
2023/04/07 01:55:10;;;;;;;15.30;9.32;;;;;;;9.97;100.00;101403.84;5243885;28;20040;-69
2023/04/07 01:57:41;;;;;;;13.02;8.77;;;;;;;10.06;100.00;101396.25;5247088;28;20394;-69
2023/04/07 02:00:13;;;;;;;13.20;9.48;;;;;;;9.92;100.00;101397.25;5242752;28;20044;-69
2023/04/07 02:02:48;;;;;;;11.85;8.02;;;;;;;9.86;100.00;101401.16;5243195;28;20041;-69
2023/04/07 02:05:21;;;;;;;10.75;7.85;;;;;;;9.73;100.00;101403.81;5243953;28;20395;-69
2023/04/07 02:07:54;;;;;;;;;;;;;;;10.50;100.00;101403.44;5244353;28;20021;-69
2023/04/07 02:10:27;;;;;;;11.73;8.35;;;;;;;9.84;100.00;101396.97;5244691;28;19995;-69
2023/04/07 02:13:00;;;;;;;12.77;9.33;;;;;;;9.85;100.00;101407.34;5243167;28;20132;-68
2023/04/07 02:15:32;;;;;;;12.25;8.30;;;;;;;9.83;100.00;101406.63;5247447;28;20275;-69
2023/04/07 02:18:06;;;;;;;11.82;8.93;;;;;;;9.83;100.00;101406.63;5244356;28;20033;-70
2023/04/07 02:20:40;;;;;;;12.98;8.88;;;;;;;9.73;100.00;101397.75;5244547;28;20144;-69
2023/04/07 02:23:11;;;;;;;;;;;;;;;10.37;100.00;101400.91;5246217;28;20033;-69
2023/04/07 02:25:43;;;;;;;10.48;8.73;;;;;;;9.89;100.00;101400.94;5244739;28;20400;-69
2023/04/07 02:28:14;;;;;;;12.82;9.80;;;;;;;9.71;100.00;101391.81;5242429;28;20112;-69
2023/04/07 02:30:45;;;;;;;13.35;10.35;;;;;;;9.79;100.00;101399.94;5240837;28;20026;-69
2023/04/07 02:33:17;;;;;;;14.38;10.13;;;;;;;9.85;100.00;101398.63;5244554;28;20021;-69
2023/04/07 02:35:48;;;;;;;16.30;11.25;;;;;;;9.82;100.00;101399.72;5241976;28;20028;-69
2023/04/07 02:38:19;;;;;;;16.65;11.32;;;;;;;9.89;100.00;101389.66;5243816;28;20033;-69
2023/04/07 02:40:50;;;;;;;13.10;11.50;;;;;;;9.77;100.00;101388.72;5246705;28;20032;-69
2023/04/07 02:43:22;;;;;;;14.02;12.00;;;;;;;9.83;100.00;101393.53;5246838;28;20040;-69
2023/04/07 02:45:53;;;;;;;17.20;13.45;;;;;;;9.76;100.00;101389.69;5244958;28;20013;-69
2023/04/07 02:48:25;;;;;;;17.40;13.13;;;;;;;9.95;100.00;101395.25;5246032;28;20040;-69
2023/04/07 02:50:57;;;;;;;16.58;12.05;;;;;;;9.93;100.00;101397.16;5247359;28;20037;-69
2023/04/07 02:53:28;;;;;;;17.67;13.30;;;;;;;9.94;100.00;101396.19;5248420;28;20032;-70
2023/04/07 02:56:00;;;;;;;15.35;11.55;;;;;;;9.93;100.00;101396.31;5249010;28;20044;-69
2023/04/07 02:58:31;;;;;;;14.13;9.70;;;;;;;9.98;100.00;101391.56;5246233;28;20029;-69
2023/04/07 03:01:02;;;;;;;17.05;10.98;;;;;;;9.85;100.00;101394.28;5247981;28;20039;-69
2023/04/07 03:03:34;;;;;;;14.85;10.73;;;;;;;9.90;100.00;101393.94;5246249;28;20128;-69
2023/04/07 03:06:05;;;;;;;13.93;11.10;;;;;;;9.90;100.00;101397.38;5245719;28;20108;-70
2023/04/07 03:08:36;;;;;;;18.20;11.13;;;;;;;9.92;100.00;101395.47;5247251;28;20024;-69
2023/04/07 03:11:07;;;;;;;13.88;11.48;;;;;;;9.84;100.00;101397.81;5245231;28;20044;-69
2023/04/07 03:13:39;;;;;;;14.80;11.05;;;;;;;9.83;100.00;101406.63;5243983;28;20043;-69
2023/04/07 03:16:10;;;;;;;16.55;9.95;;;;;;;9.85;100.00;101407.34;5248386;28;20029;-69
2023/04/07 03:18:42;;;;;;;14.02;10.38;;;;;;;9.91;100.00;101409.50;5247794;28;20102;-70
2023/04/07 03:21:13;;;;;;;15.57;10.88;;;;;;;9.85;100.00;101414.34;5241509;28;20035;-70
2023/04/07 03:23:44;;;;;;;15.90;10.50;;;;;;;9.85;100.00;101409.97;5245391;28;20090;-70
2023/04/07 03:26:15;;;;;;;14.32;10.95;;;;;;;9.88;100.00;101406.28;5249791;28;20021;-70
2023/04/07 03:28:47;;;;;;;14.30;10.18;;;;;;;9.92;100.00;101399.88;5244034;28;20104;-69
2023/04/07 03:31:18;;;;;;;14.00;9.45;;;;;;;9.95;100.00;101405.72;5245041;28;20030;-70
2023/04/07 03:33:50;;;;;;;12.43;10.43;;;;;;;9.92;100.00;101405.94;5244515;28;20984;-70
2023/04/07 03:36:21;;;;;;;14.85;9.85;;;;;;;9.89;100.00;101406.19;5242031;28;20101;-69
2023/04/07 03:38:52;;;;;;;15.15;9.98;;;;;;;9.88;100.00;101394.03;5245383;28;20033;-69
2023/04/07 03:41:24;;;;;;;12.70;10.45;;;;;;;9.78;100.00;101403.50;5248590;28;20029;-70
2023/04/07 03:43:55;;;;;;;15.35;10.80;;;;;;;9.77;100.00;101409.66;5246706;28;20020;-69
2023/04/07 03:46:27;;;;;;;13.52;10.73;;;;;;;9.66;100.00;101405.22;5246476;28;20684;-69
2023/04/07 03:48:58;;;;;;;16.13;11.30;;;;;;;9.65;100.00;101407.94;5247972;28;20029;-70
2023/04/07 03:51:29;;;;;;;21.02;11.23;;;;;;;9.70;100.00;101405.84;5243941;28;20025;-69
2023/04/07 03:54:00;;;;;;;14.65;11.82;;;;;;;9.65;100.00;101402.72;5248188;28;20091;-70
2023/04/07 03:56:32;;;;;;;16.42;11.50;;;;;;;9.72;100.00;101412.63;5247753;28;20024;-70
2023/04/07 03:59:03;;;;;;;18.33;12.15;;;;;;;9.70;100.00;101414.53;5247328;28;20025;-70
2023/04/07 04:01:35;;;;;;;16.60;12.35;;;;;;;9.65;100.00;101414.00;5245996;28;20086;-69
2023/04/07 04:04:06;;;;;;;14.85;11.50;;;;;;;9.62;100.00;101416.88;5241030;28;20051;-69
2023/04/07 04:06:37;;;;;;;17.13;12.65;;;;;;;9.69;100.00;101418.06;5245581;28;20029;-70
2023/04/07 04:09:09;;;;;;;20.90;12.90;;;;;;;9.67;100.00;101416.53;5247706;28;20022;-70
2023/04/07 04:11:40;;;;;;;19.55;12.63;;;;;;;9.69;100.00;101419.84;5245319;28;20470;-70
2023/04/07 04:14:12;;;;;;;18.65;13.02;;;;;;;9.69;100.00;101412.84;5245403;28;20074;-70
2023/04/07 04:16:43;;;;;;;21.35;12.40;;;;;;;9.69;100.00;101410.22;5246773;28;20029;-69
2023/04/07 04:19:14;;;;;;;19.75;13.05;;;;;;;9.56;100.00;101395.53;5240541;28;20021;-70
2023/04/07 04:21:46;;;;;;;18.23;12.43;;;;;;;9.56;100.00;101406.84;5243749;28;20067;-69
2023/04/07 04:24:17;;;;;;;18.60;12.18;;;;;;;9.52;100.00;101407.16;5242019;28;20098;-69
2023/04/07 04:26:48;;;;;;;16.88;11.48;;;;;;;9.47;100.00;101410.94;5244360;28;20026;-69
2023/04/07 04:29:20;;;;;;;20.90;12.07;;;;;;;9.47;100.00;101405.72;5244381;28;20744;-69
2023/04/07 04:31:51;;;;;;;20.02;12.48;;;;;;;9.39;100.00;101408.00;5245049;28;20371;-69
2023/04/07 04:34:22;;;;;;;20.92;11.88;;;;;;;9.40;100.00;101406.25;5243281;28;21064;-70
2023/04/07 04:36:53;;;;;;;18.00;12.13;;;;;;;9.54;100.00;101413.09;5243102;28;20029;-68
2023/04/07 04:39:25;;;;;;;21.70;12.50;;;;;;;9.55;100.00;101414.81;5244831;28;20029;-69
2023/04/07 04:41:56;;;;;;;17.15;12.00;;;;;;;9.53;100.00;101419.28;5239094;28;20029;-69
2023/04/07 04:44:29;;;;;;;21.73;12.00;;;;;;;9.50;100.00;101428.19;5242247;28;20025;-69
2023/04/07 04:47:00;;;;;;;20.17;12.20;;;;;;;9.47;100.00;101418.78;5240935;28;20025;-69
2023/04/07 04:49:31;;;;;;;20.23;12.43;;;;;;;9.49;100.00;101440.44;5240067;28;20087;-69
2023/04/07 04:52:03;;;;;;;22.85;12.82;;;;;;;9.50;100.00;101436.84;5240460;28;20025;-69
2023/04/07 04:54:34;;;;;;;20.50;12.60;;;;;;;9.51;100.00;101437.72;5235881;28;20021;-69
2023/04/07 04:57:05;;;;;;;16.38;11.65;;;;;;;9.52;100.00;101435.94;5241887;28;20204;-69
2023/04/07 04:59:36;;;;;;;18.67;11.60;;;;;;;9.45;100.00;101438.97;5242258;28;20493;-69
2023/04/07 05:02:08;;;;;;;18.63;11.25;;;;;;;9.42;100.00;101449.66;5241663;28;20672;-69
2023/04/07 05:04:39;;;;;;;25.42;12.05;;;;;;;9.48;100.00;101445.78;5239952;28;20075;-69
2023/04/07 05:07:11;;;;;;;16.70;10.68;;;;;;;9.44;100.00;101450.38;5240013;28;20517;-69
2023/04/07 05:09:42;;;;;;;17.35;12.80;;;;;;;9.47;100.00;101449.31;5236414;28;20059;-70
2023/04/07 05:12:14;;;;;;;19.45;10.90;;;;;;;9.49;100.00;101460.53;5238863;28;20475;-70
2023/04/07 05:14:45;;;;;;;20.00;12.13;;;;;;;9.53;100.00;101458.53;5248615;28;20033;-69
2023/04/07 05:17:17;;;;;;;17.17;11.43;;;;;;;9.58;100.00;101456.41;5250791;28;20021;-69
2023/04/07 05:19:48;;;;;;;18.70;11.63;;;;;;;9.38;100.00;101463.88;5245485;28;20033;-69
2023/04/07 05:22:20;;;;;;;17.83;11.13;;;;;;;9.36;100.00;101472.78;5242247;28;20048;-70
2023/04/07 05:24:51;;;;;;;24.77;12.68;;;;;;;9.33;100.00;101465.16;5247725;28;20189;-70
2023/04/07 05:27:22;;;;;;;22.55;12.48;;;;;;;9.32;100.00;101463.47;5247650;28;20027;-69
2023/04/07 05:29:54;;;;;;;21.95;12.05;;;;;;;9.30;100.00;101466.19;5244397;28;20052;-70
2023/04/07 05:32:27;;;;;;;21.23;11.57;;;;;;;9.36;100.00;101468.41;5243854;28;20039;-69
2023/04/07 05:34:58;;;;;;;26.23;13.88;;;;;;;9.27;100.00;101466.41;5245136;28;20028;-69
2023/04/07 05:37:29;;;;;;;26.38;13.35;;;;;;;9.37;100.00;101477.91;5229013;28;20036;-69
2023/04/07 05:40:01;;;;;;;20.15;12.65;;;;;;;9.41;100.00;101473.31;5216820;28;20453;-69
2023/04/07 05:42:32;;;;;;;18.98;12.02;;;;;;;9.40;100.00;101482.09;5241032;28;20646;-69
2023/04/07 05:45:04;;;;;;;21.80;14.25;;;;;;;9.36;100.00;101481.47;5245796;28;20044;-69
2023/04/07 05:47:35;;;;;;;22.88;13.93;;;;;;;9.42;100.00;101483.66;5242292;28;20029;-70
2023/04/07 05:50:07;;;;;;;17.58;13.27;;;;;;;9.31;100.00;101473.09;5247622;28;20454;-69
2023/04/07 05:52:38;;;;;;;20.83;14.13;;;;;;;9.33;100.00;101479.06;5243783;28;20388;-69
2023/04/07 05:55:09;;;;;;;22.25;13.63;;;;;;;9.43;100.00;101480.09;5243562;28;20229;-69
2023/04/07 05:57:41;;;;;;;22.50;14.43;;;;;;;9.43;100.00;101476.63;5246055;28;20033;-69
2023/04/07 06:00:13;;;;;;;19.83;13.10;;;;;;;9.40;100.00;101474.25;5247471;28;20512;-69
2023/04/07 06:02:45;;;;;;;21.90;14.18;;;;;;;9.44;100.00;101476.53;5244464;28;20036;-69
2023/04/07 06:05:16;;;;;;;22.23;14.07;;;;;;;9.56;100.00;101481.84;5244523;28;20482;-69
2023/04/07 06:07:47;;;;;;;23.75;15.18;;;;;;;9.53;100.00;101480.28;5244292;28;20493;-70
2023/04/07 06:10:19;;;;;;;20.75;14.73;;;;;;;9.55;100.00;101482.81;5242551;28;20036;-69
2023/04/07 06:12:50;;;;;;;23.50;15.15;;;;;;;9.65;100.00;101486.44;5243165;28;20083;-69
2023/04/07 06:15:22;;;;;;;22.70;15.15;;;;;;;9.71;100.00;101480.78;5247626;28;20039;-70
2023/04/07 06:17:53;;;;;;;20.90;15.13;;;;;;;9.57;100.00;101494.81;5244922;28;20029;-69
2023/04/07 06:20:26;;;;;;;21.70;14.70;;;;;;;9.56;100.00;101492.31;5239680;28;20060;-69
2023/04/07 06:22:58;;;;;;;;;;;;;;;10.31;100.00;101500.06;5242131;28;20033;-69
2023/04/07 06:25:29;;;;;;;20.48;14.45;;;;;;;9.77;100.00;101501.25;5242245;28;20374;-69
2023/04/07 06:28:01;;;;;;;23.27;14.88;;;;;;;9.76;100.00;101499.59;5240830;28;20450;-69
2023/04/07 06:30:33;;;;;;;21.38;15.40;;;;;;;9.76;100.00;101502.22;5241152;28;20037;-69
2023/04/07 06:33:04;;;;;;;20.42;14.40;;;;;;;9.80;100.00;101510.69;5241804;28;20544;-69
2023/04/07 06:35:38;;;;;;;19.48;13.95;;;;;;;9.85;100.00;101511.19;5237284;28;20037;-69
2023/04/07 06:38:11;;;;;;;19.48;13.90;;;;;;;9.90;100.00;101511.72;5237951;28;20049;-70
2023/04/07 06:40:42;;;;;;;22.23;15.00;;;;;;;9.92;100.00;101508.00;5244747;28;20680;-70
2023/04/07 06:43:13;;;;;;;19.92;14.95;;;;;;;9.62;100.00;101497.09;5243692;28;20382;-69
2023/04/07 06:45:44;;;;;;;21.10;14.52;;;;;;;9.65;100.00;101505.56;5240059;28;20032;-68
2023/04/07 06:48:16;;;;;;;20.98;15.77;;;;;;;9.70;100.00;101520.97;5243832;28;20021;-70
2023/04/07 06:50:51;;;;;;;20.30;14.38;;;;;;;9.83;100.00;101524.38;5245354;28;20032;-71
2023/04/07 06:53:22;;;;;;;20.38;14.48;;;;;;;9.90;100.00;101517.78;5244290;28;20037;-70
2023/04/07 06:56:04;;;;;;;23.45;16.05;;;;;;;10.03;100.00;101511.66;5241625;28;20557;-69
2023/04/07 06:58:36;;;;;;;16.73;13.93;;;;;;;9.87;100.00;101522.38;5244916;28;20041;-70
2023/04/07 07:01:07;;;;;;;19.63;13.70;;;;;;;9.93;100.00;101524.59;5244835;28;20517;-70
2023/04/07 07:03:39;;;;;;;17.75;13.50;;;;;;;9.91;100.00;101529.91;5245792;28;20049;-70
2023/04/07 07:06:10;;;;;;;17.63;11.45;;;;;;;9.96;100.00;101535.66;5258634;28;20368;-70
2023/04/07 07:08:41;;;;;;;14.05;11.23;;;;;;;10.02;100.00;101539.63;5243227;28;20036;-70
2023/04/07 07:11:13;;;;;;;15.27;11.65;;;;;;;9.93;100.00;101527.19;5243141;28;20033;-70
2023/04/07 07:13:45;;;;;;;20.65;12.57;;;;;;;10.10;100.00;101541.69;5240682;28;20029;-70
2023/04/07 07:16:16;;;;;;;17.45;11.73;;;;;;;10.13;100.00;101538.84;5244991;28;20424;-70
2023/04/07 07:18:47;;;;;;;17.75;12.48;;;;;;;10.22;100.00;101538.19;5244722;28;20135;-70
2023/04/07 07:21:19;;;;;;;18.65;11.88;;;;;;;10.34;100.00;101536.47;5242389;28;20025;-70
2023/04/07 07:23:51;;;;;;;14.57;10.95;;;;;;;10.30;100.00;101545.50;5243605;28;20502;-70
2023/04/07 07:26:22;;;;;;;15.23;10.70;;;;;;;10.27;100.00;101541.34;5246330;28;20024;-70
2023/04/07 07:28:53;;;;;;;17.77;10.80;;;;;;;10.36;100.00;101545.06;5242943;28;20560;-70
2023/04/07 07:31:24;;;;;;;16.00;10.65;;;;;;;10.32;100.00;101536.59;5244063;28;20494;-70
2023/04/07 07:33:56;;;;;;;13.02;9.35;;;;;;;10.40;100.00;101547.34;5242975;28;20029;-70
2023/04/07 07:36:27;;;;;;;12.32;9.35;;;;;;;10.55;100.00;101542.78;5240504;28;20032;-70
2023/04/07 07:38:58;;;;;;;11.18;6.18;;;;;;;10.57;100.00;101545.28;5245811;28;20031;-70
2023/04/07 07:41:30;;;;;;;10.25;7.03;;;;;;;10.53;100.00;101555.19;5249985;28;20024;-70
2023/04/07 07:44:02;;;;;;;9.10;5.90;;;;;;;10.51;100.00;101557.06;5244557;28;20065;-70
2023/04/07 07:46:33;;;;;;;10.02;5.68;;;;;;;10.53;100.00;101559.56;5242802;28;20028;-70
2023/04/07 07:49:05;;;;;;;9.70;5.05;;;;;;;10.45;100.00;101560.97;5245322;28;20036;-70
2023/04/07 07:51:36;;;;;;;6.95;5.18;;;;;;;10.55;100.00;101570.78;5243045;28;20043;-69
2023/04/07 07:54:08;;;;;;;11.13;4.88;;;;;;;10.54;100.00;101566.50;5246837;28;20036;-69
2023/04/07 07:56:39;;;;;;;8.02;4.97;;;;;;;10.46;100.00;101573.13;5247699;28;20432;-70
2023/04/07 07:59:11;;;;;;;9.35;4.80;;;;;;;10.47;100.00;101573.94;5243818;28;20033;-70
2023/04/07 08:01:42;;;;;;;9.15;4.32;;;;;;;10.55;100.00;101570.78;5243843;28;20111;-70
2023/04/07 08:04:13;;;;;;;6.68;3.95;;;;;;;10.64;100.00;101576.16;5244904;28;20037;-70
2023/04/07 08:06:45;;;;;;;6.13;3.88;;;;;;;10.73;100.00;101569.44;5244662;28;20037;-69
2023/04/07 08:09:17;;;;;;;10.10;3.67;;;;;;;10.78;100.00;101576.94;5243962;28;20033;-70
2023/04/07 08:11:50;;;;;;;5.77;3.57;;;;;;;10.81;100.00;101577.56;5244491;28;20503;-71
2023/04/07 08:14:21;;;;;;;8.13;3.65;;;;;;;10.84;100.00;101577.34;5246972;28;20900;-70
2023/04/07 08:16:52;;;;;;;10.18;3.75;;;;;;;10.95;100.00;101584.41;5245349;28;20035;-70
2023/04/07 08:19:23;;;;;;;8.18;3.45;;;;;;;10.99;100.00;101591.09;5245986;28;20037;-70
2023/04/07 08:21:55;;;;;;;5.38;3.25;;;;;;;11.14;100.00;101589.94;5247744;28;20114;-70
2023/04/07 08:24:28;;;;;;;7.35;3.55;;;;;;;11.26;100.00;101593.41;5246125;28;20032;-71
2023/04/07 08:27:00;;;;;;;7.13;3.53;;;;;;;11.24;100.00;101594.47;5245796;28;20063;-70
2023/04/07 08:29:31;;;;;;;9.23;4.47;;;;;;;11.13;100.00;101593.50;5245224;28;20025;-70
2023/04/07 08:32:03;;;;;;;7.25;3.60;;;;;;;11.13;100.00;101597.91;5243313;28;20039;-70
2023/04/07 08:34:34;;;;;;;8.27;3.30;;;;;;;10.96;100.00;101605.25;5245505;28;20130;-71
2023/04/07 08:37:05;;;;;;;7.30;2.33;;;;;;;11.03;100.00;101612.69;5244066;28;20024;-70
2023/04/07 08:39:37;;;;;;;7.28;2.50;;;;;;;10.89;100.00;101611.91;5240305;28;20040;-70
2023/04/07 08:42:11;;;;;;;6.50;2.35;;;;;;;10.88;100.00;101614.63;5243687;28;20025;-70
2023/04/07 08:44:44;;;;;;;4.60;2.17;;;;;;;10.79;100.00;101610.88;5249160;28;20976;-70
2023/04/07 08:47:16;;;;;;;;;;;;;;;11.38;100.00;101618.72;5247168;28;20964;-69
2023/04/07 08:49:50;;;;;;;7.30;2.00;;;;;;;10.78;100.00;101611.84;5245581;28;19912;-69
2023/04/07 08:52:26;;;;;;;9.38;2.42;;;;;;;10.67;100.00;101614.41;5244461;28;20029;-70
2023/04/07 08:55:01;;;;;;;5.20;2.05;;;;;;;10.67;100.00;101623.09;5244916;28;20577;-70
2023/04/07 08:57:33;;;;;;;4.22;2.17;;;;;;;10.71;100.00;101628.97;5245682;28;20021;-71
2023/04/07 09:00:05;;;;;;;6.50;1.98;;;;;;;10.78;100.00;101629.38;5246322;28;20029;-70
2023/04/07 09:02:44;;;;;;;8.20;1.83;;;;;;;10.88;100.00;101628.59;5246856;28;20040;-70
2023/04/07 09:05:15;;;;;;;5.93;1.70;;;;;;;11.05;100.00;101622.06;5244475;28;20045;-70
2023/04/07 09:07:47;;;;;;;7.90;1.73;;;;;;;11.23;100.00;101622.50;5245187;28;20028;-70
2023/04/07 09:10:18;;;;;;;6.30;1.60;;;;;;;11.26;100.00;101631.94;5244876;28;20042;-69
2023/04/07 09:12:49;;;;;;;8.95;2.25;;;;;;;11.28;100.00;101628.22;5245429;28;20033;-71
2023/04/07 09:15:21;;;;;;;4.55;1.85;;;;;;;11.27;100.00;101629.19;5244117;28;20029;-69
2023/04/07 09:17:53;;;;;;;4.47;1.90;;;;;;;11.28;100.00;101630.84;5246246;28;20466;-70
2023/04/07 09:20:24;;;;;;;5.85;2.00;;;;;;;11.24;100.00;101634.66;5248402;28;20577;-70
2023/04/07 09:22:55;;;;;;;5.90;1.77;;;;;;;11.33;100.00;101644.47;5244388;28;20087;-69
2023/04/07 09:25:28;;;;;;;7.43;1.73;;;;;;;11.32;100.00;101639.31;5244467;28;20765;-70
2023/04/07 09:28:03;;;;;;;5.53;1.98;;;;;;;11.28;100.00;101630.00;5245745;28;20056;-69
2023/04/07 09:30:34;;;;;;;5.10;1.58;;;;;;;11.34;100.00;101637.44;5243223;28;20100;-70
2023/04/07 09:33:05;;;;;;;4.63;1.85;;;;;;;11.39;100.00;101636.13;5244923;28;20025;-69
2023/04/07 09:35:51;;;;;;;5.93;2.28;;;;;;;11.67;100.00;101653.25;5242072;28;20045;-70
2023/04/07 09:38:32;;;;;;;6.25;1.60;;;;;;;11.66;100.00;101643.69;5239066;28;20284;-70
2023/04/07 09:41:08;;;;;;;6.78;2.30;;;;;;;11.65;100.00;101641.19;5239073;28;20037;-70
2023/04/07 09:43:45;;;;;;;6.47;1.70;;;;;;;11.67;100.00;101641.91;5241299;28;20033;-70
2023/04/07 09:46:17;;;;;;;5.15;2.03;;;;;;;11.72;100.00;101638.94;5237681;28;20426;-70
2023/04/07 09:49:01;;;;;;;5.88;2.00;;;;;;;11.98;100.00;101632.53;5238911;28;20095;-70
2023/04/07 09:51:32;;;;;;;7.28;2.30;;;;;;;11.82;100.00;101634.63;5240057;28;20044;-70
2023/04/07 09:54:04;;;;;;;5.45;1.95;;;;;;;11.98;100.00;101640.41;5241564;28;20032;-70
2023/04/07 09:56:35;;;;;;;5.88;2.20;;;;;;;11.96;100.00;101636.22;5243352;28;20343;-69
2023/04/07 09:59:08;;;;;;;8.35;2.30;;;;;;;11.77;100.00;101640.22;5244668;28;21147;-70
2023/04/07 10:01:40;;;;;;;6.38;1.95;;;;;;;11.71;100.00;101650.41;5247126;28;20039;-69
2023/04/07 10:04:11;;;;;;;5.47;1.70;;;;;;;11.62;100.00;101644.03;5245052;28;20041;-70
2023/04/07 10:06:44;;;;;;;7.78;2.20;;;;;;;11.56;100.00;101641.91;5248382;28;20065;-69
2023/04/07 10:09:16;;;;;;;8.18;2.60;;;;;;;11.61;100.00;101650.25;5244839;28;20044;-70
2023/04/07 10:11:49;;;;;;;8.70;2.30;;;;;;;11.51;100.00;101644.84;5246436;28;20056;-70
2023/04/07 10:14:24;;;;;;;9.88;2.20;;;;;;;11.50;100.00;101648.44;5245815;28;20029;-70
2023/04/07 10:16:58;;;;;;;10.75;2.50;;;;;;;11.56;100.00;101655.03;5246711;28;20071;-70
2023/04/07 10:19:32;;;;;;;9.25;2.40;;;;;;;11.74;100.00;101658.00;5245846;28;20039;-70
2023/04/07 10:22:05;;;;;;;8.30;2.05;;;;;;;11.70;100.00;101662.66;5242820;28;20044;-69
2023/04/07 10:24:39;;;;;;;;;;;;;;;12.30;100.00;101663.28;5245882;28;20413;-70
2023/04/07 10:27:15;;;;;;;8.88;2.00;;;;;;;11.78;100.00;101668.19;5246770;28;19917;-70
2023/04/07 10:29:50;;;;;;;5.18;1.67;;;;;;;11.81;100.00;101664.47;5241536;28;20032;-70
2023/04/07 10:32:21;;;;;;;5.95;2.05;;;;;;;11.98;100.00;101666.66;5247127;28;20036;-70
2023/04/07 10:34:53;;;;;;;7.43;1.95;;;;;;;12.00;100.00;101674.41;5248064;28;20037;-70
2023/04/07 10:37:25;;;;;;;6.97;1.92;;;;;;;12.05;100.00;101667.88;5239468;28;20167;-70
2023/04/07 10:40:18;;;;;;;4.32;1.65;;;;;;;12.34;100.00;101673.44;5245053;28;20095;-70
2023/04/07 10:42:50;;;;;;;7.57;1.63;;;;;;;12.21;100.00;101682.44;5242813;28;20040;-70
2023/04/07 10:45:54;;;;;;;6.38;1.95;;;;;;;12.51;100.00;101681.81;5244233;28;20036;-70
2023/04/07 10:48:27;;;;;;;;;;;;;;;12.79;100.00;101678.59;5246835;28;20343;-70
2023/04/07 10:51:04;;;;;;;7.55;2.38;;;;;;;12.08;100.00;101685.16;5246035;28;19966;-71
2023/04/07 10:53:35;;;;;;;5.65;1.77;;;;;;;11.93;100.00;101687.16;5237336;28;20082;-69
2023/04/07 10:56:07;;;;;;;7.40;2.08;;;;;;;11.96;100.00;101673.81;5245993;28;20029;-70
2023/04/07 10:58:38;;;;;;;8.30;2.28;;;;;;;12.05;100.00;101691.50;5245618;28;20062;-70
2023/04/07 11:01:09;;;;;;;5.50;1.83;;;;;;;12.08;100.00;101691.25;5239956;28;20024;-70
2023/04/07 11:03:52;;;;;;;6.07;1.60;;;;;;;12.26;100.00;101694.22;5246084;28;20049;-70
2023/04/07 11:06:25;;;;;;;10.57;2.05;;;;;;;12.09;100.00;101678.97;5246099;28;20029;-70
2023/04/07 11:08:56;;;;;;;8.18;1.98;;;;;;;12.18;100.00;101688.75;5244447;28;20044;-70
2023/04/07 11:11:39;;;;;;;7.00;1.67;;;;;;;12.34;100.00;101691.84;5245166;28;20021;-70
2023/04/07 11:14:10;;;;;;;4.05;1.33;;;;;;;12.33;100.00;101684.91;5244737;28;20087;-70
2023/04/07 11:16:42;;;;;;;7.72;1.83;;;;;;;12.55;100.00;101688.47;5243161;28;20033;-69
2023/04/07 11:19:14;;;;;;;5.25;1.70;;;;;;;12.54;100.00;101690.28;5243558;28;20029;-70
2023/04/07 11:21:45;;;;;;;5.88;1.75;;;;;;;12.48;100.00;101693.38;5245815;28;20059;-70
2023/04/07 11:24:33;;;;;;;5.60;1.90;;;;;;;12.74;100.00;101686.03;5245238;28;20172;-70
2023/04/07 11:27:05;;;;;;;7.55;2.28;;;;;;;12.50;100.00;101696.75;5241857;28;20425;-70
2023/04/07 11:29:37;;;;;;;8.03;1.93;;;;;;;12.66;100.00;101689.28;5236488;28;20851;-70
2023/04/07 11:32:10;;;;;;;5.88;1.73;;;;;;;12.73;100.00;101694.03;5242166;28;20720;-70
2023/04/07 11:34:41;;;;;;;4.95;1.48;;;;;;;12.65;100.00;101699.91;5241693;28;20047;-70
2023/04/07 11:37:25;;;;;;;5.18;1.52;;;;;;;12.80;100.00;101703.09;5242490;28;20052;-70